Time;durP1;ratioP1;P1;durP2;ratioP2;P2;SDS_P1;SDS_P2;PMS_P1;PMS_P2;Temp;Humidity;BMP_temperature;BMP_pressure;BME280_temperature;BME280_humidity;BME280_pressure;Samples;Min_cycle;Max_cycle;Signal;HPM_P1;HPM_P2
2021/11/20 00:00:17;;;;;;;12.20;10.90;;;9.70;99.90;;;;;;5014202;28;20412;-57
2021/11/20 00:02:44;;;;;;;11.33;9.90;;;9.80;99.90;;;;;;5014047;28;20387;-57
2021/11/20 00:05:13;;;;;;;11.83;10.53;;;9.80;99.90;;;;;;5013007;28;20902;-57
2021/11/20 00:07:38;;;;;;;14.57;13.07;;;9.80;99.90;;;;;;5013903;28;20893;-56
2021/11/20 00:10:09;;;;;;;13.27;10.93;;;9.80;99.90;;;;;;5013540;28;20414;-58
2021/11/20 00:12:35;;;;;;;15.63;13.93;;;9.60;99.90;;;;;;5013449;28;20176;-57
2021/11/20 00:15:01;;;;;;;13.67;11.17;;;9.50;99.90;;;;;;5013411;28;20471;-58
2021/11/20 00:17:27;;;;;;;13.27;11.03;;;9.50;99.90;;;;;;5013846;28;20494;-57
2021/11/20 00:19:53;;;;;;;14.20;12.70;;;9.60;99.90;;;;;;5013223;28;20236;-58
2021/11/20 00:22:40;;;;;;;13.97;12.10;;;9.50;99.90;;;;;;5013689;28;20922;-57
2021/11/20 00:25:19;;;;;;;13.20;11.20;;;9.40;99.90;;;;;;5013236;28;20435;-57
2021/11/20 00:27:45;;;;;;;13.50;11.97;;;9.40;99.90;;;;;;5013036;28;20392;-57
2021/11/20 00:30:19;;;;;;;13.20;10.93;;;9.60;99.90;;;;;;5013622;28;20437;-57
2021/11/20 00:32:59;;;;;;;12.63;11.20;;;9.70;99.90;;;;;;5013189;28;20396;-54
2021/11/20 00:35:29;;;;;;;14.97;10.80;;;9.60;99.90;;;;;;5012921;28;20469;-56
2021/11/20 00:37:55;;;;;;;12.80;11.33;;;9.50;99.90;;;;;;5013527;28;20485;-57
2021/11/20 00:40:30;;;;;;;13.77;11.50;;;9.50;99.90;;;;;;5013564;28;20493;-58
2021/11/20 00:42:57;;;;;;;12.40;10.80;;;9.50;99.90;;;;;;5013324;28;20156;-57
2021/11/20 00:45:23;;;;;;;14.90;11.00;;;9.40;99.90;;;;;;5013292;28;20423;-57
2021/11/20 00:47:49;;;;;;;14.43;11.77;;;9.50;99.90;;;;;;5015786;28;20416;-58
2021/11/20 00:50:18;;;;;;;13.30;11.83;;;9.50;99.90;;;;;;5016802;28;20641;-56
2021/11/20 00:52:44;;;;;;;13.07;11.03;;;9.40;99.90;;;;;;5017421;28;20172;-56
2021/11/20 00:55:13;;;;;;;11.33;10.00;;;9.50;99.90;;;;;;5017574;28;20553;-53
2021/11/20 00:57:40;;;;;;;12.60;10.63;;;9.60;99.90;;;;;;5016647;28;20414;-57
2021/11/20 01:00:08;;;;;;;13.80;11.53;;;9.60;99.90;;;;;;5016931;28;20857;-57
2021/11/20 01:02:33;;;;;;;15.50;11.50;;;9.70;99.90;;;;;;5016749;28;20410;-57
2021/11/20 01:04:59;;;;;;;13.70;11.60;;;9.70;99.90;;;;;;5016370;28;20541;-56
2021/11/20 01:07:25;;;;;;;14.23;11.27;;;9.70;99.90;;;;;;5016666;28;20176;-57
2021/11/20 01:09:51;;;;;;;14.00;11.87;;;9.70;99.90;;;;;;5016616;28;20919;-57
2021/11/20 01:12:23;;;;;;;11.90;10.17;;;9.70;99.90;;;;;;5016689;28;20271;-58
2021/11/20 01:14:50;;;;;;;13.60;11.47;;;9.60;99.90;;;;;;5016558;28;20218;-57
2021/11/20 01:17:18;;;;;;;15.90;12.67;;;9.60;99.90;;;;;;5016865;28;20414;-56
2021/11/20 01:19:44;;;;;;;15.93;12.30;;;9.50;99.90;;;;;;5016475;28;20403;-56
2021/11/20 01:22:13;;;;;;;14.10;11.37;;;9.50;99.90;;;;;;5016426;28;20403;-58
2021/11/20 01:24:39;;;;;;;18.00;13.53;;;9.50;99.90;;;;;;5016317;28;20510;-57
2021/11/20 01:27:05;;;;;;;14.07;10.93;;;9.50;99.90;;;;;;5016371;28;20542;-57
2021/11/20 01:29:30;;;;;;;12.00;10.53;;;9.60;99.90;;;;;;5016927;28;20407;-57
2021/11/20 01:31:57;;;;;;;14.73;12.10;;;9.60;99.90;;;;;;5016521;28;20465;-57
2021/11/20 01:34:24;;;;;;;13.93;12.17;;;9.70;99.90;;;;;;5016138;28;20208;-57
2021/11/20 01:36:52;;;;;;;13.00;11.60;;;9.40;99.90;;;;;;4998272;28;20447;-57
2021/11/20 01:39:22;;;;;;;15.53;12.60;;;9.40;99.90;;;;;;5013128;28;20497;-57
2021/11/20 01:41:53;;;;;;;16.60;13.03;;;9.50;99.90;;;;;;5015796;28;20411;-57
2021/11/20 01:44:22;;;;;;;15.50;13.60;;;9.10;99.90;;;;;;5016361;28;20423;-58
2021/11/20 01:46:52;;;;;;;16.03;12.40;;;9.30;99.90;;;;;;5016219;28;20412;-58
2021/11/20 01:49:22;;;;;;;18.90;13.20;;;9.30;99.90;;;;;;5015745;28;20418;-57
2021/11/20 01:51:55;;;;;;;23.03;17.40;;;9.20;99.90;;;;;;5015574;28;20423;-56
2021/11/20 01:54:36;;;;;;;16.70;13.93;;;9.40;99.90;;;;;;5016290;28;20468;-53
2021/11/20 01:57:25;;;;;;;12.90;11.37;;;9.40;99.90;;;;;;5015832;28;20895;-56
2021/11/20 02:00:05;;;;;;;15.20;12.63;;;9.40;99.90;;;;;;5015292;28;20400;-57
2021/11/20 02:02:38;;;;;;;15.47;13.00;;;9.40;99.90;;;;;;5015726;28;20414;-58
2021/11/20 02:05:13;;;;;;;15.87;13.10;;;9.50;99.90;;;;;;5043623;23;20466;-54
2021/11/20 02:07:47;;;;;;;12.50;10.73;;;9.50;99.90;;;;;;4984623;28;20794;-56
2021/11/20 02:10:25;;;;;;;15.00;11.60;;;9.50;99.90;;;;;;4996549;28;20403;-52
2021/11/20 02:12:59;;;;;;;14.80;12.90;;;9.50;99.90;;;;;;4992182;28;20424;-55
2021/11/20 02:15:34;;;;;;;14.13;10.90;;;9.60;99.90;;;;;;4984613;28;20471;-55
2021/11/20 02:18:01;;;;;;;16.23;12.87;;;9.60;99.90;;;;;;4976194;28;20427;-56
2021/11/20 02:20:40;;;;;;;13.27;11.07;;;9.70;99.90;;;;;;4975700;28;20415;-54
2021/11/20 02:23:06;;;;;;;13.30;10.63;;;9.70;99.90;;;;;;4976244;28;20392;-54
2021/11/20 02:25:31;;;;;;;11.70;9.93;;;9.70;99.90;;;;;;4975975;28;20958;-56
2021/11/20 02:27:58;;;;;;;12.10;9.37;;;9.70;99.90;;;;;;4958323;28;20189;-57
2021/11/20 02:30:27;;;;;;;11.50;10.10;;;9.80;99.90;;;;;;4975417;28;20200;-58
2021/11/20 02:33:13;;;;;;;12.80;10.80;;;9.80;99.90;;;;;;4976111;28;20411;-57
2021/11/20 02:35:40;;;;;;;13.40;10.40;;;9.80;99.90;;;;;;4980557;28;20540;-57
2021/11/20 02:38:09;;;;;;;12.03;10.07;;;9.80;99.90;;;;;;4995123;28;20407;-56
2021/11/20 02:40:35;;;;;;;12.97;10.57;;;9.80;99.90;;;;;;4995057;28;20408;-57
2021/11/20 02:43:01;;;;;;;15.57;10.50;;;9.70;99.90;;;;;;4994965;28;20400;-57
2021/11/20 02:45:36;;;;;;;14.40;11.67;;;9.60;99.90;;;;;;4995343;28;20204;-55
2021/11/20 02:48:03;;;;;;;11.93;9.80;;;9.60;99.90;;;;;;4995347;28;20474;-54
2021/11/20 02:50:35;;;;;;;13.23;11.20;;;9.60;99.90;;;;;;4994825;28;20853;-53
2021/11/20 02:53:01;;;;;;;10.90;9.73;;;9.70;99.90;;;;;;4995117;28;20488;-55
2021/11/20 02:55:27;;;;;;;12.33;10.53;;;9.80;99.90;;;;;;4977583;28;21074;-57
2021/11/20 02:57:53;;;;;;;11.90;10.13;;;9.80;99.90;;;;;;4994644;28;20171;-55
2021/11/20 03:00:19;;;;;;;12.53;10.33;;;9.80;99.90;;;;;;4977232;28;20165;-57
2021/11/20 03:02:48;;;;;;;11.73;10.53;;;9.80;99.90;;;;;;4994701;28;20791;-57
2021/11/20 03:05:13;;;;;;;13.40;11.70;;;9.70;99.90;;;;;;4994395;28;20421;-58
2021/11/20 03:07:39;;;;;;;17.40;14.30;;;9.80;99.90;;;;;;4994947;28;20404;-58
2021/11/20 03:10:06;;;;;;;12.43;11.13;;;9.80;99.90;;;;;;4994183;28;20181;-57
2021/11/20 03:12:32;;;;;;;13.67;11.60;;;9.90;99.90;;;;;;4994345;28;20208;-57
2021/11/20 03:14:59;;;;;;;11.47;10.27;;;9.90;99.90;;;;;;4995174;28;20455;-56
2021/11/20 03:17:24;;;;;;;12.77;10.97;;;10.00;99.90;;;;;;4994489;28;20555;-58
2021/11/20 03:19:51;;;;;;;12.50;11.00;;;9.90;99.90;;;;;;4994453;28;20951;-58
2021/11/20 03:22:25;;;;;;;13.50;10.87;;;9.80;99.90;;;;;;4994571;28;20183;-58
2021/11/20 03:24:52;;;;;;;14.60;12.40;;;9.80;99.90;;;;;;4994718;28;20445;-57
2021/11/20 03:27:19;;;;;;;16.43;13.80;;;9.70;99.90;;;;;;4994401;28;20431;-58
2021/11/20 03:29:45;;;;;;;17.70;14.30;;;9.70;99.90;;;;;;4994238;28;20476;-58
2021/11/20 03:32:12;;;;;;;17.73;13.03;;;9.60;99.90;;;;;;4994840;28;20422;-58
2021/11/20 03:34:39;;;;;;;16.80;13.70;;;9.60;99.90;;;;;;4994193;28;20447;-57
2021/11/20 03:37:05;;;;;;;13.90;12.40;;;9.70;99.90;;;;;;4973200;28;20860;-57
2021/11/20 03:39:31;;;;;;;14.70;12.37;;;9.70;99.90;;;;;;4975692;28;20435;-57
2021/11/20 03:41:57;;;;;;;14.17;11.77;;;9.50;99.90;;;;;;4974651;28;20901;-58
2021/11/20 03:44:22;;;;;;;16.03;13.13;;;9.60;99.90;;;;;;4974671;28;20541;-58
2021/11/20 03:46:48;;;;;;;15.17;12.73;;;9.50;99.90;;;;;;4978899;28;20506;-58
2021/11/20 03:49:14;;;;;;;13.43;11.50;;;9.60;99.90;;;;;;4994289;28;20168;-58
2021/11/20 03:51:40;;;;;;;12.80;10.77;;;9.70;99.90;;;;;;4993902;28;20424;-57
2021/11/20 03:54:06;;;;;;;12.40;11.10;;;9.70;99.90;;;;;;4993918;28;20266;-58
2021/11/20 03:56:32;;;;;;;15.13;11.97;;;9.70;99.90;;;;;;4994189;28;20192;-58
2021/11/20 03:58:58;;;;;;;13.13;11.57;;;9.80;99.90;;;;;;4994122;28;20407;-57
2021/11/20 04:01:26;;;;;;;13.23;11.60;;;9.80;99.90;;;;;;4994002;28;20404;-57
2021/11/20 04:03:52;;;;;;;15.53;12.20;;;9.80;99.90;;;;;;4993886;28;20207;-58
2021/11/20 04:06:18;;;;;;;13.07;10.97;;;9.80;99.90;;;;;;4993478;28;20549;-58
2021/11/20 04:08:49;;;;;;;14.90;13.13;;;9.80;99.90;;;;;;4993904;28;20185;-58
2021/11/20 04:11:18;;;;;;;13.73;12.23;;;9.90;99.90;;;;;;4993622;28;20453;-59
2021/11/20 04:13:44;;;;;;;17.40;13.67;;;9.80;99.90;;;;;;4993787;28;20412;-56
2021/11/20 04:16:11;;;;;;;17.13;14.33;;;9.80;99.90;;;;;;4993716;28;20424;-60
2021/11/20 04:18:38;;;;;;;17.67;13.90;;;9.80;99.90;;;;;;4993631;28;20187;-57
2021/11/20 04:21:04;;;;;;;12.63;10.23;;;9.90;99.90;;;;;;4993747;28;20417;-57
2021/11/20 04:23:30;;;;;;;12.00;10.00;;;9.90;99.90;;;;;;4997092;28;20917;-58
2021/11/20 04:25:56;;;;;;;17.03;13.20;;;9.90;99.90;;;;;;4997906;28;20482;-58
2021/11/20 04:28:22;;;;;;;14.27;12.87;;;9.90;99.90;;;;;;4997692;28;20415;-57
2021/11/20 04:30:48;;;;;;;18.03;15.40;;;9.90;99.90;;;;;;4997562;28;20599;-58
2021/11/20 04:33:15;;;;;;;19.93;16.63;;;9.90;99.90;;;;;;4997742;28;20232;-58
2021/11/20 04:35:42;;;;;;;13.33;10.97;;;9.80;99.90;;;;;;4997091;28;20467;-58
2021/11/20 04:38:09;;;;;;;11.43;9.27;;;9.80;99.90;;;;;;4998072;28;20407;-57
2021/11/20 04:40:36;;;;;;;14.37;12.33;;;9.80;99.90;;;;;;4997642;28;20420;-57
2021/11/20 04:43:01;;;;;;;10.90;9.13;;;9.80;99.90;;;;;;4997685;28;20415;-58
2021/11/20 04:45:31;;;;;;;13.97;11.07;;;9.90;99.90;;;;;;4997664;28;20772;-58
2021/11/20 04:47:57;;;;;;;15.43;11.50;;;9.90;99.90;;;;;;4998137;28;20518;-57
2021/11/20 04:50:23;;;;;;;13.37;10.83;;;9.80;99.90;;;;;;4997565;28;20426;-59
2021/11/20 04:52:50;;;;;;;13.63;12.00;;;9.90;99.90;;;;;;4997329;28;20404;-58
2021/11/20 04:55:18;;;;;;;14.63;12.10;;;9.90;99.90;;;;;;4997307;28;20455;-58
2021/11/20 04:57:45;;;;;;;13.17;11.23;;;10.00;99.90;;;;;;4997082;28;20419;-58
2021/11/20 05:00:24;;;;;;;13.43;11.37;;;9.90;99.90;;;;;;4997066;28;20418;-57
2021/11/20 05:02:50;;;;;;;16.20;12.73;;;9.90;99.90;;;;;;4997191;28;20390;-58
2021/11/20 05:05:17;;;;;;;12.70;10.50;;;9.90;99.90;;;;;;4996307;28;20443;-58
2021/11/20 05:07:42;;;;;;;12.73;10.40;;;9.90;99.90;;;;;;4986141;28;20416;-57
2021/11/20 05:10:11;;;;;;;10.67;9.57;;;9.90;99.90;;;;;;4997283;28;20424;-58
2021/11/20 05:12:37;;;;;;;10.90;9.60;;;9.80;99.90;;;;;;4995974;28;20186;-58
2021/11/20 05:15:05;;;;;;;12.27;10.97;;;9.80;99.90;;;;;;4996909;28;20477;-59
2021/11/20 05:17:31;;;;;;;16.73;11.90;;;9.70;99.90;;;;;;4997681;28;20463;-59
2021/11/20 05:19:57;;;;;;;10.73;9.63;;;9.70;99.90;;;;;;4997080;28;20400;-56
2021/11/20 05:22:22;;;;;;;12.50;10.00;;;9.70;99.90;;;;;;4997018;28;20172;-56
2021/11/20 05:24:48;;;;;;;11.70;10.17;;;9.70;99.90;;;;;;4996728;28;20520;-58
2021/11/20 05:27:14;;;;;;;11.03;9.00;;;9.80;99.90;;;;;;4996560;28;20250;-59
2021/11/20 05:29:53;;;;;;;11.90;9.60;;;9.80;99.90;;;;;;4996868;28;20174;-59
2021/11/20 05:32:19;;;;;;;9.57;8.07;;;9.80;99.90;;;;;;4996889;28;20203;-60
2021/11/20 05:34:45;;;;;;;9.97;8.70;;;9.90;99.90;;;;;;4995287;28;20971;-58
2021/11/20 05:37:10;;;;;;;10.27;8.67;;;9.80;99.90;;;;;;4996327;28;20803;-57
2021/11/20 05:39:36;;;;;;;9.63;8.63;;;9.90;99.90;;;;;;4991422;28;20493;-56
2021/11/20 05:42:02;;;;;;;8.30;7.03;;;9.90;99.90;;;;;;4977328;28;20653;-57
2021/11/20 05:44:28;;;;;;;10.67;8.30;;;9.90;99.90;;;;;;4994156;28;20417;-57
2021/11/20 05:46:58;;;;;;;12.73;8.70;;;10.00;99.90;;;;;;4979025;28;20445;-56
2021/11/20 05:49:28;;;;;;;10.30;7.93;;;9.80;99.90;;;;;;4996375;28;20650;-56
2021/11/20 05:51:55;;;;;;;8.23;6.70;;;9.80;99.90;;;;;;4978784;28;20416;-58
2021/11/20 05:54:21;;;;;;;9.40;7.70;;;9.80;99.90;;;;;;4985299;28;21000;-56
2021/11/20 05:56:47;;;;;;;8.60;7.30;;;9.90;99.90;;;;;;4985938;28;20451;-52
2021/11/20 05:59:13;;;;;;;8.70;7.10;;;9.90;99.90;;;;;;5004619;28;20404;-55
2021/11/20 06:01:39;;;;;;;11.03;7.83;;;9.80;99.90;;;;;;5004993;28;20438;-57
2021/11/20 06:04:05;;;;;;;8.93;6.80;;;9.80;99.90;;;;;;5005050;28;20174;-56
2021/11/20 06:06:31;;;;;;;8.10;6.93;;;9.90;99.90;;;;;;5004916;28;20459;-54
2021/11/20 06:08:56;;;;;;;8.80;7.00;;;10.00;99.90;;;;;;4988333;28;20261;-57
2021/11/20 06:11:22;;;;;;;10.27;8.43;;;9.90;99.90;;;;;;5004248;28;20173;-57
2021/11/20 06:13:48;;;;;;;9.67;8.03;;;9.80;99.90;;;;;;5003060;28;20181;-57
2021/11/20 06:16:14;;;;;;;11.97;8.70;;;9.70;99.90;;;;;;5003681;28;20488;-55
2021/11/20 06:18:40;;;;;;;10.93;9.03;;;9.60;99.90;;;;;;5003699;28;20180;-58
2021/11/20 06:21:07;;;;;;;13.40;10.33;;;9.60;99.90;;;;;;5003790;28;20463;-56
2021/11/20 06:23:34;;;;;;;13.20;9.20;;;9.50;99.90;;;;;;5003464;28;20407;-56
2021/11/20 06:26:01;;;;;;;11.30;9.10;;;9.30;99.90;;;;;;5002778;28;20446;-56
2021/11/20 06:28:27;;;;;;;11.47;9.40;;;9.20;99.90;;;;;;5002406;28;20408;-58
2021/11/20 06:30:53;;;;;;;10.50;8.80;;;9.30;99.90;;;;;;5002714;28;20426;-54
2021/11/20 06:33:19;;;;;;;13.57;11.30;;;9.40;99.90;;;;;;5002492;28;20829;-56
2021/11/20 06:35:45;;;;;;;12.30;11.00;;;9.30;99.90;;;;;;5001554;28;20494;-60
2021/11/20 06:38:10;;;;;;;15.20;12.37;;;9.10;99.90;;;;;;5001540;28;20176;-59
2021/11/20 06:40:42;;;;;;;17.27;12.27;;;9.00;99.90;;;;;;5003178;28;20222;-56
2021/11/20 06:43:11;;;;;;;14.47;11.30;;;8.90;99.90;;;;;;5001866;28;20198;-58
2021/11/20 06:45:39;;;;;;;13.77;10.87;;;9.00;99.90;;;;;;5002328;28;20462;-56
2021/11/20 06:48:06;;;;;;;12.50;10.60;;;9.10;99.90;;;;;;5002966;28;20420;-58
2021/11/20 06:50:32;;;;;;;13.70;9.93;;;9.00;99.90;;;;;;5002180;28;20488;-57
2021/11/20 06:52:58;;;;;;;13.67;10.90;;;8.90;99.90;;;;;;5001685;28;20414;-59
2021/11/20 06:55:26;;;;;;;13.50;10.77;;;9.00;99.90;;;;;;5002726;28;20462;-57
2021/11/20 06:57:56;;;;;;;13.57;10.43;;;9.10;99.90;;;;;;5002682;28;20183;-59
2021/11/20 07:00:28;;;;;;;13.90;11.30;;;9.20;99.90;;;;;;4985074;28;20507;-58
2021/11/20 07:03:02;;;;;;;10.67;9.27;;;9.30;99.90;;;;;;5001524;28;20473;-59
2021/11/20 07:05:31;;;;;;;13.90;10.80;;;9.30;99.90;;;;;;5001061;28;20463;-55
2021/11/20 07:07:59;;;;;;;13.90;10.13;;;9.30;99.90;;;;;;5001975;28;20419;-55
2021/11/20 07:10:25;;;;;;;14.43;10.77;;;9.30;99.90;;;;;;5001660;28;20412;-59
2021/11/20 07:12:52;;;;;;;14.07;10.33;;;9.30;99.90;;;;;;5001725;28;20998;-56
2021/11/20 07:15:19;;;;;;;15.00;11.87;;;9.30;99.90;;;;;;4984127;28;20533;-55
2021/11/20 07:17:45;;;;;;;13.17;11.03;;;9.30;99.90;;;;;;5001416;28;20408;-58
2021/11/20 07:20:12;;;;;;;13.37;11.53;;;9.30;99.90;;;;;;5001869;28;20419;-58
2021/11/20 07:22:37;;;;;;;16.00;11.20;;;9.20;99.90;;;;;;4984655;28;20834;-56
2021/11/20 07:25:04;;;;;;;13.87;10.03;;;9.10;99.90;;;;;;5001784;28;20415;-59
2021/11/20 07:27:30;;;;;;;11.30;10.00;;;9.10;99.90;;;;;;5000892;28;20169;-55
2021/11/20 07:29:56;;;;;;;13.20;11.10;;;9.30;99.90;;;;;;5001095;28;20411;-57
2021/11/20 07:32:26;;;;;;;14.00;11.13;;;9.40;99.90;;;;;;5001419;28;20511;-58
2021/11/20 07:34:52;;;;;;;15.10;11.30;;;9.50;99.90;;;;;;4994882;28;20250;-58
2021/11/20 07:37:17;;;;;;;14.90;11.47;;;9.60;99.90;;;;;;4981501;28;20516;-54
2021/11/20 07:39:43;;;;;;;15.10;10.63;;;9.70;99.90;;;;;;4981782;28;20196;-53
2021/11/20 07:42:09;;;;;;;12.03;10.53;;;9.70;99.90;;;;;;4981459;28;20165;-57
2021/11/20 07:44:34;;;;;;;14.87;11.60;;;9.70;99.90;;;;;;4999221;28;20186;-57
2021/11/20 07:47:00;;;;;;;15.73;12.70;;;9.80;99.90;;;;;;5000517;28;20192;-55
2021/11/20 07:49:26;;;;;;;13.03;10.80;;;9.80;99.90;;;;;;5001481;28;20183;-56
2021/11/20 07:51:51;;;;;;;14.37;10.83;;;9.70;99.90;;;;;;4982518;28;20188;-59
2021/11/20 07:54:19;;;;;;;14.20;11.10;;;9.70;99.90;;;;;;5000437;28;20203;-58
2021/11/20 07:56:44;;;;;;;14.70;11.90;;;9.70;99.90;;;;;;4999816;28;20185;-59
2021/11/20 07:59:13;;;;;;;15.40;12.10;;;9.60;99.90;;;;;;4994012;28;20421;-58
2021/11/20 08:01:40;;;;;;;13.63;11.67;;;9.60;99.90;;;;;;4986698;28;20277;-59
2021/11/20 08:04:06;;;;;;;12.60;11.00;;;9.70;99.90;;;;;;4986485;28;20425;-56
2021/11/20 08:06:32;;;;;;;16.73;12.70;;;9.70;99.90;;;;;;5030485;22;20507;-53
2021/11/20 08:09:04;;;;;;;16.20;12.70;;;9.80;99.90;;;;;;5004955;28;20503;-55
2021/11/20 08:11:31;;;;;;;13.70;11.07;;;9.90;99.90;;;;;;5009715;28;20399;-54
2021/11/20 08:13:58;;;;;;;14.10;11.30;;;9.80;99.90;;;;;;5013531;28;20881;-55
2021/11/20 08:16:24;;;;;;;14.63;10.80;;;9.70;99.90;;;;;;5013489;28;20445;-57
2021/11/20 08:18:50;;;;;;;16.17;11.50;;;9.80;99.90;;;;;;5013820;28;20396;-54
2021/11/20 08:21:16;;;;;;;16.50;12.30;;;9.90;99.90;;;;;;5013090;28;20459;-55
2021/11/20 08:23:42;;;;;;;14.70;10.90;;;9.90;99.90;;;;;;5013571;28;20196;-54
2021/11/20 08:26:08;;;;;;;14.23;10.57;;;9.90;99.90;;;;;;5013346;28;20737;-58
2021/11/20 08:28:34;;;;;;;20.43;12.07;;;10.00;99.90;;;;;;5013475;28;20400;-53
2021/11/20 08:31:00;;;;;;;18.13;13.87;;;10.00;99.90;;;;;;5013562;28;20749;-54
2021/11/20 08:33:26;;;;;;;15.53;12.47;;;10.10;99.90;;;;;;5013516;28;21030;-55
2021/11/20 08:35:53;;;;;;;15.63;13.07;;;9.90;99.90;;;;;;5010947;28;20956;-55
2021/11/20 08:38:19;;;;;;;16.10;12.37;;;9.70;99.90;;;;;;4994130;28;20423;-56
2021/11/20 08:40:47;;;;;;;17.50;13.40;;;9.70;99.90;;;;;;4993672;28;20405;-56
2021/11/20 08:43:13;;;;;;;15.00;11.80;;;9.60;99.90;;;;;;4993549;28;20176;-55
2021/11/20 08:45:44;;;;;;;15.20;12.37;;;9.70;99.90;;;;;;4993758;28;20419;-53
2021/11/20 08:48:15;;;;;;;18.00;13.77;;;9.90;99.90;;;;;;4994005;28;20396;-55
2021/11/20 08:50:44;;;;;;;14.93;13.07;;;10.10;99.90;;;;;;4993509;28;20399;-54
2021/11/20 08:53:10;;;;;;;18.37;12.40;;;10.10;99.90;;;;;;4993787;28;20502;-56
2021/11/20 08:55:38;;;;;;;14.23;11.33;;;10.10;99.90;;;;;;4993549;28;20435;-56
2021/11/20 08:58:04;;;;;;;13.53;11.50;;;10.00;99.90;;;;;;4993507;28;20482;-55
2021/11/20 09:00:47;;;;;;;13.37;11.00;;;10.00;99.90;;;;;;4993686;28;20461;-56
2021/11/20 09:03:25;;;;;;;14.13;10.83;;;10.00;99.90;;;;;;4994164;28;20407;-55
2021/11/20 09:06:06;;;;;;;12.70;10.50;;;10.00;99.90;;;;;;4992729;28;20426;-53
2021/11/20 09:08:43;;;;;;;14.50;10.60;;;10.20;99.90;;;;;;4996854;28;20454;-57
2021/11/20 09:11:20;;;;;;;12.60;9.27;;;10.40;99.90;;;;;;4997490;28;20401;-54
2021/11/20 09:14:01;;;;;;;11.60;9.60;;;10.20;99.90;;;;;;4997100;28;20402;-53
2021/11/20 09:16:27;;;;;;;10.73;9.53;;;9.90;99.90;;;;;;4997369;28;20424;-53
2021/11/20 09:18:55;;;;;;;10.20;8.83;;;9.90;99.90;;;;;;4997130;28;20398;-54
2021/11/20 09:21:22;;;;;;;10.10;8.30;;;10.20;99.90;;;;;;4996817;28;20412;-55
2021/11/20 09:23:48;;;;;;;14.57;8.63;;;10.40;99.90;;;;;;4997198;28;20490;-56
2021/11/20 09:26:17;;;;;;;8.60;7.70;;;10.50;99.90;;;;;;4997239;28;20465;-56
2021/11/20 09:28:43;;;;;;;11.83;7.67;;;10.40;99.90;;;;;;4996689;28;20779;-52
2021/11/20 09:31:10;;;;;;;12.13;9.83;;;10.50;99.90;;;;;;4997023;28;20412;-53
2021/11/20 09:33:37;;;;;;;8.63;7.30;;;10.40;99.90;;;;;;4996962;28;20411;-50
2021/11/20 09:36:04;;;;;;;11.73;7.23;;;10.30;99.90;;;;;;4996296;28;20471;-55
2021/11/20 09:38:31;;;;;;;9.80;8.13;;;10.20;99.90;;;;;;4996844;28;20474;-55
2021/11/20 09:41:10;;;;;;;10.73;7.47;;;10.10;99.90;;;;;;4996920;28;20403;-52
2021/11/20 09:43:39;;;;;;;8.77;7.43;;;10.30;99.90;;;;;;4996647;28;20389;-55
2021/11/20 09:46:52;;;;;;;10.77;7.63;;;10.30;99.90;;;;;;4996793;28;20423;-53
2021/11/20 09:49:30;;;;;;;10.27;8.40;;;10.40;99.90;;;;;;4993846;28;20462;-53
2021/11/20 09:51:57;;;;;;;10.17;8.10;;;10.50;99.90;;;;;;4996409;28;20388;-53
2021/11/20 09:54:26;;;;;;;11.47;9.07;;;10.50;99.90;;;;;;4978968;28;20449;-52
2021/11/20 09:56:59;;;;;;;9.27;6.73;;;10.50;99.90;;;;;;4996539;28;20501;-56
2021/11/20 09:59:29;;;;;;;9.63;6.93;;;10.30;99.90;;;;;;4996483;28;20402;-53
2021/11/20 10:02:07;;;;;;;7.70;6.00;;;10.40;99.90;;;;;;4996585;28;20412;-55
2021/11/20 10:04:49;;;;;;;9.40;7.27;;;10.30;99.90;;;;;;4996294;28;20412;-55
2021/11/20 10:07:32;;;;;;;9.83;5.97;;;10.30;99.90;;;;;;4995665;28;20524;-53
2021/11/20 10:10:04;;;;;;;7.60;6.23;;;10.40;99.90;;;;;;4996535;28;20393;-52
2021/11/20 10:12:36;;;;;;;5.80;4.70;;;10.40;99.90;;;;;;4998770;28;20911;-53
2021/11/20 10:15:13;;;;;;;7.60;5.63;;;10.40;99.90;;;;;;4995806;28;20490;-54
2021/11/20 10:17:45;;;;;;;7.73;5.87;;;10.30;99.90;;;;;;4995927;28;20507;-52
2021/11/20 10:20:27;;;;;;;7.10;5.23;;;10.40;99.90;;;;;;4995703;28;20391;-52
2021/11/20 10:23:10;;;;;;;7.90;5.70;;;10.50;99.90;;;;;;4995737;28;20390;-53
2021/11/20 10:26:00;;;;;;;9.80;6.03;;;10.60;99.90;;;;;;4996003;28;20468;-52
2021/11/20 10:28:32;;;;;;;7.47;6.40;;;10.50;99.90;;;;;;4995757;28;20415;-53
2021/11/20 10:31:15;;;;;;;6.20;4.57;;;10.40;99.90;;;;;;4995922;28;20391;-52
2021/11/20 10:33:50;;;;;;;5.50;4.80;;;10.20;99.90;;;;;;4995880;28;20387;-52
2021/11/20 10:36:39;;;;;;;6.60;4.70;;;10.10;99.90;;;;;;4995593;28;20456;-52
2021/11/20 10:39:14;;;;;;;6.43;4.60;;;10.00;99.90;;;;;;4996951;28;20890;-53
2021/11/20 10:41:56;;;;;;;7.37;5.10;;;9.90;99.90;;;;;;4995645;28;20380;-54
2021/11/20 10:44:39;;;;;;;6.10;4.87;;;9.90;99.90;;;;;;4995598;28;20426;-51
2021/11/20 10:47:16;;;;;;;6.93;4.60;;;9.80;99.90;;;;;;4995752;28;20428;-55
2021/11/20 10:50:02;;;;;;;7.00;5.83;;;9.90;99.90;;;;;;4996007;28;20380;-52
2021/11/20 10:53:01;;;;;;;6.30;5.13;;;10.00;99.90;;;;;;4995315;28;20399;-55
2021/11/20 10:55:49;;;;;;;6.20;5.53;;;10.10;99.90;;;;;;4996362;28;20435;-52
2021/11/20 10:58:55;;;;;;;7.93;5.30;;;10.00;99.90;;;;;;4995487;28;20413;-57
2021/11/20 11:01:42;;;;;;;6.00;5.40;;;9.90;99.90;;;;;;4983812;28;20403;-53
2021/11/20 11:04:26;;;;;;;6.63;5.57;;;9.90;99.90;;;;;;4980127;28;20977;-56
2021/11/20 11:07:05;;;;;;;5.57;4.90;;;10.10;99.90;;;;;;4999358;28;20486;-57
2021/11/20 11:09:36;;;;;;;6.37;5.77;;;10.20;99.90;;;;;;5008757;28;20396;-57
2021/11/20 11:12:09;;;;;;;6.90;5.27;;;10.10;99.90;;;;;;5008306;28;20415;-57
2021/11/20 11:15:08;;;;;;;6.50;4.77;;;10.10;99.90;;;;;;4986466;28;20996;-57
2021/11/20 11:17:57;;;;;;;4.83;4.33;;;10.00;99.90;;;;;;5003267;28;20928;-57
2021/11/20 11:21:13;;;;;;;7.90;5.80;;;10.20;99.90;;;;;;4995930;28;20388;-53
2021/11/20 11:24:03;;;;;;;6.00;4.90;;;10.00;99.90;;;;;;4954199;28;20780;-53
2021/11/20 11:26:33;;;;;;;5.73;4.73;;;10.10;99.90;;;;;;4996078;28;20427;-57
2021/11/20 11:29:15;;;;;;;5.23;4.67;;;10.50;99.90;;;;;;4995983;28;20739;-52
2021/11/20 11:31:43;;;;;;;5.97;5.30;;;10.60;99.90;;;;;;4995663;28;20423;-51
2021/11/20 11:34:30;;;;;;;6.33;4.80;;;10.40;99.90;;;;;;5002482;28;20478;-56
2021/11/20 11:37:13;;;;;;;6.77;4.77;;;10.40;99.90;;;;;;5007234;28;20439;-55
2021/11/20 11:39:58;;;;;;;9.90;7.23;;;10.50;99.90;;;;;;5008498;28;20400;-55
2021/11/20 11:42:45;;;;;;;10.63;7.70;;;10.50;99.90;;;;;;5001586;28;20490;-52
2021/11/20 11:45:38;;;;;;;6.63;5.60;;;10.30;99.90;;;;;;5003734;28;20447;-53
2021/11/20 11:48:43;;;;;;;7.17;5.40;;;10.20;99.90;;;;;;5004545;28;20491;-54
2021/11/20 11:51:14;;;;;;;7.40;6.00;;;10.50;99.90;;;;;;5005432;28;20432;-54
2021/11/20 11:54:07;;;;;;;6.00;5.07;;;10.50;99.90;;;;;;5005527;28;20421;-55
2021/11/20 11:56:40;;;;;;;7.53;6.40;;;10.40;99.90;;;;;;5005347;28;20935;-55
2021/11/20 11:59:20;;;;;;;8.70;5.83;;;10.30;99.90;;;;;;5004692;28;20413;-54
2021/11/20 12:02:06;;;;;;;7.33;6.60;;;10.30;99.90;;;;;;5005171;28;20441;-54
2021/11/20 12:04:34;;;;;;;7.93;6.27;;;10.50;99.90;;;;;;4952108;28;20479;-53
2021/11/20 12:07:08;;;;;;;9.10;6.93;;;10.60;99.90;;;;;;4993645;28;20506;-54
2021/11/20 12:09:39;;;;;;;7.47;5.47;;;10.60;99.90;;;;;;4994179;28;20875;-57
2021/11/20 12:12:31;;;;;;;7.63;6.50;;;10.80;99.90;;;;;;4994309;28;20467;-57
2021/11/20 12:15:30;;;;;;;8.20;6.77;;;10.40;99.90;;;;;;4993725;28;20463;-56
2021/11/20 12:18:06;;;;;;;10.47;6.90;;;10.30;99.90;;;;;;4911770;28;20435;-54
2021/11/20 12:21:17;;;;;;;8.47;7.03;;;10.30;99.90;;;;;;4976678;28;20822;-53
2021/11/20 12:23:49;;;;;;;7.43;5.93;;;10.60;99.90;;;;;;4993683;28;20431;-54
2021/11/20 12:26:21;;;;;;;7.73;6.93;;;10.80;99.90;;;;;;4995082;28;20941;-56
2021/11/20 12:29:28;;;;;;;7.80;6.67;;;10.60;99.90;;;;;;4994176;28;20395;-55
2021/11/20 12:32:12;;;;;;;8.33;7.23;;;10.40;99.90;;;;;;4993132;28;20422;-53
2021/11/20 12:35:12;;;;;;;10.70;8.00;;;10.40;99.90;;;;;;4992913;28;20518;-57
2021/11/20 12:37:59;;;;;;;9.10;7.90;;;10.30;99.90;;;;;;4993212;28;20439;-54
2021/11/20 12:40:43;;;;;;;8.70;7.53;;;10.00;99.90;;;;;;4993949;28;20396;-57
2021/11/20 12:43:16;;;;;;;9.33;7.23;;;10.00;99.90;;;;;;4995183;28;20780;-53
2021/11/20 12:45:45;;;;;;;10.30;7.40;;;10.20;99.90;;;;;;4997355;28;20923;-56
2021/11/20 12:48:43;;;;;;;9.87;7.93;;;10.10;99.90;;;;;;4997916;28;20749;-53
2021/11/20 12:51:33;;;;;;;8.97;7.47;;;10.20;99.90;;;;;;4951996;28;20886;-53
2021/11/20 12:54:18;;;;;;;11.00;8.50;;;10.10;99.90;;;;;;4997058;28;20415;-55
2021/11/20 12:56:44;;;;;;;7.93;6.43;;;10.40;99.90;;;;;;4997454;28;20950;-56
2021/11/20 12:59:29;;;;;;;9.73;8.20;;;10.40;99.90;;;;;;4997381;28;20408;-56
2021/11/20 13:02:01;;;;;;;9.70;8.10;;;10.30;99.90;;;;;;4997510;28;20407;-52